M I D A S
Marine Information and Data Acquisition System
Tripno 448 of the Zeeleeuw from 2003-03-19 07:25:30 to 2003-03-19 14:17:29
Back to CruiseResearch ActivitiesStationsMapUnderway DataData graphs

EquipmentUnitsComments
TimeDGPSUTC
LatitudeDGPSDM.mWGS84
LongitudeDGPSDM.mWGS84
SpeedMeteo Stationm/sRelative wind speed
DirectionMeteo StationdegRelative wind direction
TemperatureMeteo Stationdeg CelciusAir temperature
PressureMeteo StationPaAtmospheric pressure
HumidityMeteo Station%Relative humidity
Missing or incorrect values are displayed as -999
Metereological data collected by the RV Zeeleeuw from 2003-03-19 07:25:30 to 2003-03-19 14:17:29
                                                                                    Next 1000 lines
Time Latitude Longitude Speed Direction Temperature Pressure Humidity
2003-03-19 07:25:38 51°13.599 2°56.106 0.4 63 6.4 103150 83
2003-03-19 07:25:42 51°13.599 2°56.106 0.4 53 6.4 103150 83
2003-03-19 07:25:48 51°13.599 2°56.106 0.5 40 6.4 103150 83
2003-03-19 07:25:54 51°13.599 2°56.106 0.6 31 6.4 103150 83
2003-03-19 07:25:58 51°13.599 2°56.106 0.6 29 6.4 103150 83
2003-03-19 07:26:04 51°13.599 2°56.106 0.7 29 6.4 103150 83
2003-03-19 07:26:08 51°13.599 2°56.106 0.5 30 6.4 103150 83
2003-03-19 07:26:14 51°13.599 2°56.106 0.5 29 6.4 103150 83
2003-03-19 07:26:18 51°13.599 2°56.105 0.7 34 6.4 103150 83
2003-03-19 07:26:22 51°13.599 2°56.105 0.5 36 6.4 103150 83
2003-03-19 07:26:28 51°13.599 2°56.105 0.4 36 6.5 103150 83
2003-03-19 07:26:32 51°13.599 2°56.105 0.5 37 6.5 103150 83
2003-03-19 07:26:38 51°13.599 2°56.105 0.4 37 6.5 103150 83
2003-03-19 07:26:44 51°13.599 2°56.105 0.4 37 6.5 103150 83
2003-03-19 07:26:48 51°13.598 2°56.105 0.3 37 6.5 103160 83
2003-03-19 07:26:53 51°13.598 2°56.104 0.4 37 6.5 103160 83
2003-03-19 07:26:58 51°13.598 2°56.104 0.4 37 6.5 103150 83
2003-03-19 07:27:02 51°13.598 2°56.104 0.4 37 6.5 103150 83
2003-03-19 07:27:08 51°13.598 2°56.104 0.6 45 6.5 103150 83
2003-03-19 07:27:13 51°13.597 2°56.104 0.6 317 6.5 103150 83
2003-03-19 07:27:18 51°13.598 2°56.103 0.6 25 6.6 103150 83
2003-03-19 07:27:24 51°13.598 2°56.104 0.5 25 6.6 103150 83
2003-03-19 07:27:28 51°13.598 2°56.104 0.5 25 6.6 103150 83
2003-03-19 07:27:34 51°13.598 2°56.104 0.4 24 6.6 103150 83
2003-03-19 07:27:38 51°13.598 2°56.103 0.4 24 6.6 103150 83
2003-03-19 07:27:44 51°13.599 2°56.102 0.3 24 6.6 103150 83
2003-03-19 07:27:48 51°13.599 2°56.1 0.2 25 6.6 103160 83
2003-03-19 07:27:53 51°13.599 2°56.097 0.1 31 6.6 103160 83
2003-03-19 07:27:58 51°13.6 2°56.094 0.1 40 6.6 103150 83
2003-03-19 07:28:04 51°13.601 2°56.088 0.1 112 6.6 103150 83
2003-03-19 07:28:10 51°13.602 2°56.082 0.8 139 6.6 103150 82
2003-03-19 07:28:14 51°13.604 2°56.077 0.7 137 6.6 103150 82
2003-03-19 07:28:20 51°13.605 2°56.069 0.9 148 6.6 103160 82
2003-03-19 07:28:25 51°13.606 2°56.062 1.5 151 6.6 103160 82
2003-03-19 07:28:30 51°13.608 2°56.055 1.5 150 6.6 103150 82
2003-03-19 07:28:34 51°13.609 2°56.048 1.8 145 6.6 103150 82
2003-03-19 07:28:39 51°13.611 2°56.041 1.5 145 6.6 103150 82
2003-03-19 07:28:44 51°13.612 2°56.033 1.8 145 6.6 103150 82
2003-03-19 07:28:50 51°13.614 2°56.025 1.5 139 6.6 103150 82
2003-03-19 07:28:54 51°13.615 2°56.02 1.6 131 6.6 103150 82
2003-03-19 07:28:58 51°13.615 2°56.015 1.5 139 6.6 103150 81
2003-03-19 07:29:02 51°13.616 2°56.011 1.2 135 6.6 103150 81
2003-03-19 07:29:09 51°13.617 2°56.003 1.3 119 6.5 103150 81
2003-03-19 07:29:13 51°13.618 2°56 1.1 118 6.5 103150 81
2003-03-19 07:29:18 51°13.619 2°55.995 0.8 115 6.5 103150 81
2003-03-19 07:29:24 51°13.62 2°55.991 0.7 108 6.5 103150 81
2003-03-19 07:29:28 51°13.621 2°55.988 0.7 108 6.5 103150 81
2003-03-19 07:29:34 51°13.621 2°55.984 1 83 6.5 103150 81
2003-03-19 07:29:38 51°13.622 2°55.981 0.9 83 6.4 103150 81
2003-03-19 07:29:44 51°13.623 2°55.978 1 83 6.4 103150 81
2003-03-19 07:29:49 51°13.624 2°55.975 0.7 130 6.4 103150 81
2003-03-19 07:29:54 51°13.625 2°55.971 1.7 136 6.4 103150 81
2003-03-19 07:29:58 51°13.626 2°55.968 1.8 133 6.4 103150 81
2003-03-19 07:30:02 51°13.627 2°55.964 1.6 127 6.4 103150 81
2003-03-19 07:30:09 51°13.629 2°55.957 1.6 130 6.4 103150 81
2003-03-19 07:30:15 51°13.631 2°55.949 1.9 128 6.4 103150 81
2003-03-19 07:30:20 51°13.633 2°55.941 1.9 140 6.4 103150 81
2003-03-19 07:30:24 51°13.635 2°55.935 1.9 149 6.4 103150 81
2003-03-19 07:30:30 51°13.638 2°55.926 1.8 146 6.3 103150 81
2003-03-19 07:30:34 51°13.641 2°55.92 2.5 162 6.3 103150 81
2003-03-19 07:30:40 51°13.644 2°55.91 2.5 152 6.3 103150 80
2003-03-19 07:30:45 51°13.647 2°55.902 3 154 6.3 103150 80
2003-03-19 07:30:50 51°13.65 2°55.893 2.4 145 6.3 103150 80
2003-03-19 07:30:54 51°13.653 2°55.886 2.1 148 6.3 103150 80
2003-03-19 07:31:00 51°13.657 2°55.875 2.5 142 6.2 103150 80
2003-03-19 07:31:04 51°13.659 2°55.868 2.4 133 6.2 103150 80
2003-03-19 07:31:10 51°13.663 2°55.858 2.3 135 6.2 103150 80
2003-03-19 07:31:14 51°13.664 2°55.85 2.2 143 6.2 103150 80
2003-03-19 07:31:20 51°13.667 2°55.839 2.3 153 6.2 103150 80
2003-03-19 07:31:24 51°13.669 2°55.832 1.6 145 6.2 103150 80
2003-03-19 07:31:30 51°13.672 2°55.821 2.3 140 6.2 103150 80
2003-03-19 07:31:34 51°13.674 2°55.814 2.3 144 6.2 103150 80
2003-03-19 07:31:40 51°13.677 2°55.804 2.8 134 6.1 103150 80
2003-03-19 07:31:44 51°13.679 2°55.797 2.2 122 6.1 103150 80
2003-03-19 07:31:49 51°13.681 2°55.788 1.9 124 6.1 103150 80
2003-03-19 07:31:54 51°13.683 2°55.78 1.8 127 6.1 103150 80
2003-03-19 07:32:00 51°13.686 2°55.77 1.8 122 6.1 103150 80
2003-03-19 07:32:04 51°13.688 2°55.764 1.6 122 6.1 103150 80
2003-03-19 07:32:09 51°13.69 2°55.756 1.8 132 6 103150 81
2003-03-19 07:32:14 51°13.692 2°55.749 1.9 153 6 103150 81
2003-03-19 07:32:18 51°13.693 2°55.743 1.9 135 6 103150 81
2003-03-19 07:32:24 51°13.694 2°55.737 1.6 131 6 103150 81
2003-03-19 07:32:28 51°13.695 2°55.733 1.2 116 6 103150 81
2003-03-19 07:32:34 51°13.696 2°55.727 0.9 105 6 103150 81
2003-03-19 07:32:38 51°13.696 2°55.724 1.3 113 6 103150 81
2003-03-19 07:32:44 51°13.697 2°55.72 1.4 117 6 103150 81
2003-03-19 07:32:48 51°13.697 2°55.717 1 118 6 103150 81
2003-03-19 07:32:54 51°13.697 2°55.715 1.2 94 6 103150 81
2003-03-19 07:32:58 51°13.698 2°55.713 1.1 94 5.9 103150 81
2003-03-19 07:33:02 51°13.698 2°55.712 1 95 5.9 103150 81
2003-03-19 07:33:08 51°13.698 2°55.712 0.9 89 6 103150 81
2003-03-19 07:33:14 51°13.699 2°55.711 1.1 48 6 103150 81
2003-03-19 07:33:18 51°13.699 2°55.712 1.1 52 5.9 103150 81
2003-03-19 07:33:22 51°13.7 2°55.712 1 26 5.9 103150 81
2003-03-19 07:33:29 51°13.701 2°55.715 1.3 12 5.9 103150 81
2003-03-19 07:33:34 51°13.702 2°55.717 1.4 12 5.9 103150 81
2003-03-19 07:33:38 51°13.703 2°55.719 1.4 12 5.9 103150 82
2003-03-19 07:33:44 51°13.705 2°55.72 1.7 12 5.9 103150 82
2003-03-19 07:33:48 51°13.707 2°55.721 1.6 5 6 103150 82
2003-03-19 07:33:54 51°13.707 2°55.723 1.3 358 6 103150 82
2003-03-19 07:33:58 51°13.708 2°55.722 1.1 354 6 103150 82
2003-03-19 07:34:02 51°13.709 2°55.722 0.7 354 6 103150 82
2003-03-19 07:34:08 51°13.709 2°55.721 0.5 354 6 103150 82
2003-03-19 07:34:13 51°13.708 2°55.719 0.3 354 6 103150 82
2003-03-19 07:34:18 51°13.708 2°55.717 0.2 355 6 103150 82
2003-03-19 07:34:23 51°13.707 2°55.715 0.1 358 6 103150 82
2003-03-19 07:34:29 51°13.705 2°55.712 0.2 358 6 103150 82
2003-03-19 07:34:34 51°13.704 2°55.71 0.3 359 6 103150 82
2003-03-19 07:34:38 51°13.703 2°55.709 0.3 359 6 103150 82
2003-03-19 07:34:44 51°13.702 2°55.707 0.2 359 6 103150 82
2003-03-19 07:34:49 51°13.702 2°55.705 0.3   6.1 103150 82
2003-03-19 07:34:54 51°13.702 2°55.704 1.2 354 6.1 103150 82
2003-03-19 07:34:58 51°13.702 2°55.704 1.3 354 6.1 103150 82
2003-03-19 07:35:04 51°13.703 2°55.703 1.8 350 6.1 103150 82
2003-03-19 07:35:09 51°13.704 2°55.703 1.9 349 6.1 103150 82
2003-03-19 07:35:12 51°13.704 2°55.703 1.9 339 6.1 103150 82
2003-03-19 07:35:18 51°13.706 2°55.702 1.8 338 6.1 103150 82
2003-03-19 07:35:24 51°13.709 2°55.702 2 329 6.1 103150 82
2003-03-19 07:35:28 51°13.71 2°55.701 2 330 6.1 103150 82
2003-03-19 07:35:34 51°13.713 2°55.7 2.2 331 6.1 103150 82
2003-03-19 07:35:38 51°13.715 2°55.699 2.5 330 6.1 103150 82
2003-03-19 07:35:44 51°13.718 2°55.697 2.4 322 6.1 103150 82
2003-03-19 07:35:48 51°13.721 2°55.695 2.4 327 6.1 103150 82
2003-03-19 07:35:54 51°13.725 2°55.693 2.8 330 6.1 103150 82
2003-03-19 07:35:58 51°13.728 2°55.691 2.5 332 6.1 103150 82
2003-03-19 07:36:04 51°13.733 2°55.688 2.1 326 6.1 103150 82
2003-03-19 07:36:08 51°13.736 2°55.686 2.7 328 6 103150 82
2003-03-19 07:36:14 51°13.742 2°55.682 3.1 329 6 103150 82
2003-03-19 07:36:18 51°13.747 2°55.679 3.1 332 6 103150 81
2003-03-19 07:36:24 51°13.754 2°55.674 3.1 336 6 103150 81
2003-03-19 07:36:29 51°13.76 2°55.67 3.4 349 6 103150 81
2003-03-19 07:36:33 51°13.766 2°55.666 3.5 355 6 103150 81
2003-03-19 07:36:39 51°13.775 2°55.66 3.6 352 6 103150 81
2003-03-19 07:36:44 51°13.784 2°55.654 3.4 353 6 103150 81
2003-03-19 07:36:48 51°13.792 2°55.649 3.6 350 5.9 103150 81
2003-03-19 07:36:54 51°13.802 2°55.641 4.3 344 5.9 103150 81
2003-03-19 07:36:59 51°13.81 2°55.635 4.1 348 5.9 103150 82
2003-03-19 07:37:04 51°13.82 2°55.63 4.2 343 5.9 103150 82
2003-03-19 07:37:08 51°13.827 2°55.625 4.5 342 5.9 103150 82
2003-03-19 07:37:14 51°13.838 2°55.618 4.2 346 5.9 103150 82
2003-03-19 07:37:18 51°13.846 2°55.613 4.6 347 5.9 103150 82
2003-03-19 07:37:24 51°13.857 2°55.605 4.5 344 5.9 103150 82
2003-03-19 07:37:28 51°13.864 2°55.6 4.4 341 5.9 103150 82
2003-03-19 07:37:34 51°13.876 2°55.592 4.5 346 5.9 103150 82
2003-03-19 07:37:38 51°13.885 2°55.586 4.7 341 5.9 103150 82
2003-03-19 07:37:44 51°13.897 2°55.577 4.8 339 5.9 103150 82
2003-03-19 07:37:48 51°13.905 2°55.572 4.7 344 5.9 103150 82
2003-03-19 07:37:53 51°13.915 2°55.565 4.7 342 5.9 103150 82
2003-03-19 07:37:58 51°13.925 2°55.557 4.3 345 5.9 103150 82
2003-03-19 07:38:02 51°13.932 2°55.551 4.3 349 5.9 103150 82
2003-03-19 07:38:08 51°13.943 2°55.544 4.7 340 5.9 103150 82
2003-03-19 07:38:13 51°13.952 2°55.538 4.7 338 5.9 103150 82
2003-03-19 07:38:18 51°13.963 2°55.532 4.6 343 5.9 103150 82
2003-03-19 07:38:22 51°13.971 2°55.527 4.4 339 5.9 103150 82
2003-03-19 07:38:28 51°13.983 2°55.519 4.5 336 5.8 103150 82
2003-03-19 07:38:33 51°13.993 2°55.511 4.3 345 5.8 103150 82
2003-03-19 07:38:38 51°14.003 2°55.502 4.2 342 5.8 103150 82
2003-03-19 07:38:42 51°14.011 2°55.496 4.3 344 5.8 103150 82
2003-03-19 07:38:48 51°14.022 2°55.486 4.4 335 5.8 103150 82
2003-03-19 07:38:54 51°14.035 2°55.479 4.2 343 5.8 103150 82
2003-03-19 07:38:59 51°14.045 2°55.473 4.1 336 5.8 103150 82
2003-03-19 07:39:03 51°14.054 2°55.468 4 347 5.8 103150 82
2003-03-19 07:39:08 51°14.064 2°55.461 4.4 347 5.9 103150 82
2003-03-19 07:39:14 51°14.076 2°55.452 4.3 350 5.9 103150 82
2003-03-19 07:39:18 51°14.084 2°55.447 4.8 336 5.8 103150 83
2003-03-19 07:39:24 51°14.097 2°55.437 5.2 335 5.8 103150 83
2003-03-19 07:39:28 51°14.105 2°55.431 5.2 330 5.9 103150 83
2003-03-19 07:39:33 51°14.115 2°55.423 5.3 328 5.9 103150 83
2003-03-19 07:39:38 51°14.125 2°55.415 4.6 335 5.8 103150 83
2003-03-19 07:39:42 51°14.133 2°55.409 4.7 335 5.8 103150 83
2003-03-19 07:39:48 51°14.146 2°55.399 5 333 5.9 103150 83
2003-03-19 07:39:53 51°14.156 2°55.389 5 328 5.9 103150 83
2003-03-19 07:39:58 51°14.166 2°55.38 4.7 329 5.9 103140 83
2003-03-19 07:40:04 51°14.178 2°55.369 4.7 330 5.9 103140 83
2003-03-19 07:40:08 51°14.186 2°55.361 4.4 338 5.9 103150 83
2003-03-19 07:40:14 51°14.199 2°55.346 4.5 337 5.9 103150 83
2003-03-19 07:40:18 51°14.208 2°55.337 4.2 329 5.8 103150 83
2003-03-19 07:40:22 51°14.215 2°55.329 4.4 337 5.8 103150 83
2003-03-19 07:40:28 51°14.226 2°55.315 4.5 335 5.8 103150 83
2003-03-19 07:40:33 51°14.236 2°55.302 4.2 334 5.8 103150 83
2003-03-19 07:40:38 51°14.244 2°55.29 4.1 330 5.8 103150 83
2003-03-19 07:40:42 51°14.25 2°55.281 4 336 5.8 103150 83
2003-03-19 07:40:48 51°14.26 2°55.265 4.3 340 5.8 103150 83
2003-03-19 07:40:54 51°14.27 2°55.249 4.3 335 5.8 103150 83
2003-03-19 07:40:58 51°14.276 2°55.238 4.1 335 5.8 103150 83
2003-03-19 07:41:02 51°14.283 2°55.228 4 348 5.8 103150 83
2003-03-19 07:41:08 51°14.292 2°55.212 4.1 335 5.8 103150 83
2003-03-19 07:41:14 51°14.301 2°55.195 4.8 338 5.8 103150 83
2003-03-19 07:41:18 51°14.307 2°55.184 4.3 336 5.8 103150 83
2003-03-19 07:41:24 51°14.315 2°55.166 3.7 331 5.8 103150 83
2003-03-19 07:41:28 51°14.321 2°55.155 4.2 334 5.8 103140 84
2003-03-19 07:41:33 51°14.328 2°55.14 4.2 338 5.8 103140 84
2003-03-19 07:41:38 51°14.335 2°55.124 4.1 335 5.7 103150 84
2003-03-19 07:41:44 51°14.343 2°55.105 3.9 333 5.7 103150 84
2003-03-19 07:41:48 51°14.348 2°55.091 4.2 346 5.7 103150 84
2003-03-19 07:41:54 51°14.355 2°55.07 4.5 344 5.7 103150 84
2003-03-19 07:41:58 51°14.359 2°55.055 4.5 341 5.7 103150 84
2003-03-19 07:42:04 51°14.365 2°55.032 4.1 336 5.7 103150 84
2003-03-19 07:42:08 51°14.371 2°55.017 4.1 337 5.7 103150 84
2003-03-19 07:42:13 51°14.377 2°54.998 4.4 339 5.7 103150 84
2003-03-19 07:42:18 51°14.382 2°54.977 4.3 337 5.7 103150 84
2003-03-19 07:42:23 51°14.386 2°54.956 4.4 340 5.7 103150 84
2003-03-19 07:42:29 51°14.391 2°54.928 4.5 344 5.7 103150 84
2003-03-19 07:42:34 51°14.394 2°54.905 4.8 345 5.7 103150 84
2003-03-19 07:42:38 51°14.396 2°54.885 4.8 346 5.7 103150 84
2003-03-19 07:42:44 51°14.397 2°54.856 4.9 347 5.7 103150 84
2003-03-19 07:42:48 51°14.398 2°54.835 4.9 350 5.7 103150 85
2003-03-19 07:42:54 51°14.397 2°54.804 5.1 351 5.7 103150 85
2003-03-19 07:42:58 51°14.396 2°54.783 5 353 5.7 103140 85
2003-03-19 07:43:04 51°14.393 2°54.751 5.1 352 5.7 103140 85
2003-03-19 07:43:08 51°14.391 2°54.728 5.2 354 5.7 103140 85
2003-03-19 07:43:13 51°14.389 2°54.7 5.9 349 5.7 103140 85
2003-03-19 07:43:18 51°14.388 2°54.672 5.7 353 5.7 103140 85
2003-03-19 07:43:22 51°14.386 2°54.649 5.9 353 5.7 103140 85
2003-03-19 07:43:28 51°14.383 2°54.615 5.7 354 5.7 103150 85
2003-03-19 07:43:34 51°14.379 2°54.58 5.8 355 5.7 103150 85
2003-03-19 07:43:38 51°14.376 2°54.557 5.8 354 5.7 103140 85
2003-03-19 07:43:42 51°14.372 2°54.534 5.6 355 5.7 103140 85
2003-03-19 07:43:48 51°14.367 2°54.5 5.6 354 5.7 103150 85
2003-03-19 07:43:53 51°14.362 2°54.471 5.6 352 5.7 103150 85
2003-03-19 07:43:58 51°14.357 2°54.442 5.8 354 5.6 103150 85
2003-03-19 07:44:02 51°14.352 2°54.419 5.8 354 5.6 103150 85
2003-03-19 07:44:08 51°14.346 2°54.384 5.6 350 5.6 103150 85
2003-03-19 07:44:14 51°14.339 2°54.349 5.7 352 5.6 103150 85
2003-03-19 07:44:18 51°14.336 2°54.326 5.8 349 5.6 103150 85
2003-03-19 07:44:24 51°14.33 2°54.29 5.7 354 5.6 103150 85
2003-03-19 07:44:28 51°14.327 2°54.266 5.6 350 5.6 103150 85
2003-03-19 07:44:34 51°14.323 2°54.231 5.7 356 5.6 103150 85
2003-03-19 07:44:38 51°14.32 2°54.208 5.9 351 5.6 103150 85
2003-03-19 07:44:44 51°14.316 2°54.172 5.7 352 5.6 103150 85
2003-03-19 07:44:49 51°14.313 2°54.141 5.7 353 5.6 103150 85
2003-03-19 07:44:54 51°14.31 2°54.111 5.8 352 5.6 103150 85
2003-03-19 07:44:58 51°14.307 2°54.087 6.1 354 5.6 103150 85
2003-03-19 07:45:04 51°14.302 2°54.052 5.6 354 5.6 103150 85
2003-03-19 07:45:09 51°14.296 2°54.022 6 352 5.6 103150 85
2003-03-19 07:45:14 51°14.289 2°53.994 5.8 356 5.6 103150 85
2003-03-19 07:45:18 51°14.281 2°53.972 5.6 355 5.6 103150 85
2003-03-19 07:45:24 51°14.269 2°53.939 5.7 355 5.6 103150 85
2003-03-19 07:45:28 51°14.261 2°53.917 5.9 355 5.6 103150 86
2003-03-19 07:45:34 51°14.249 2°53.885 6 353 5.6 103150 86
2003-03-19 07:45:38 51°14.242 2°53.863 5.9 357 5.6 103150 86
2003-03-19 07:45:43 51°14.231 2°53.837 5.7 357 5.6 103150 86
2003-03-19 07:45:48 51°14.22 2°53.811 6 354 5.6 103140 86
2003-03-19 07:45:54 51°14.207 2°53.78 5.8 356 5.6 103140 86
2003-03-19 07:45:58 51°14.199 2°53.759 6 355 5.6 103140 86
2003-03-19 07:46:03 51°14.189 2°53.732 6 355 5.6 103140 86
2003-03-19 07:46:09 51°14.178 2°53.698 6.2 355 5.5 103150 86
2003-03-19 07:46:13 51°14.172 2°53.675 5.9 356 5.5 103150 86
2003-03-19 07:46:18 51°14.165 2°53.646 5.7 352 5.5 103150 86
2003-03-19 07:46:23 51°14.16 2°53.615 6.1 353 5.5 103150 86
2003-03-19 07:46:28 51°14.156 2°53.585 6.1 356 5.5 103140 86
2003-03-19 07:46:32 51°14.153 2°53.561 5.9 353 5.5 103140 86
2003-03-19 07:46:38 51°14.15 2°53.523 5.7 355 5.5 103140 86
2003-03-19 07:46:44 51°14.147 2°53.486 5.8 353 5.5 103140 86
2003-03-19 07:46:48 51°14.144 2°53.462 6 353 5.5 103150 86
2003-03-19 07:46:53 51°14.139 2°53.431 5.9 354 5.5 103150 86
2003-03-19 07:46:58 51°14.134 2°53.4 6.1 356 5.5 103140 86
2003-03-19 07:47:04 51°14.126 2°53.364 5.8 354 5.5 103140 86
2003-03-19 07:47:09 51°14.118 2°53.334 6.1 355 5.5 103150 86
2003-03-19 07:47:14 51°14.108 2°53.306 6.1 356 5.5 103150 86
2003-03-19 07:47:18 51°14.1 2°53.284 6.4 354 5.5 103150 86
2003-03-19 07:47:24 51°14.087 2°53.251 6.1 355 5.5 103150 86
2003-03-19 07:47:28 51°14.078 2°53.228 6.3 353 5.5 103140 86
2003-03-19 07:47:33 51°14.068 2°53.2 6.1 354 5.5 103140 86
2003-03-19 07:47:38 51°14.058 2°53.172 6 354 5.5 103140 86
2003-03-19 07:47:44 51°14.045 2°53.139 6.1 352 5.5 103140 86
2003-03-19 07:47:48 51°14.037 2°53.116 6.2 352 5.5 103150 86
2003-03-19 07:47:54 51°14.024 2°53.082 6.3 354 5.5 103150 86
2003-03-19 07:47:58 51°14.015 2°53.06 3.3 355 5.5 103150 86
2003-03-19 07:48:02 51°14.006 2°53.037 6.5 354 5.5 103150 86
2003-03-19 07:48:08 51°13.993 2°53.004 6.4 354 5.5 103140 86
2003-03-19 07:48:14 51°13.979 2°52.971 6.2 353 5.5 103140 86
2003-03-19 07:48:18 51°13.971 2°52.949 6.4 355 5.5 103150 86
2003-03-19 07:48:24 51°13.957 2°52.914 6.3 351 5.5 103150 86
2003-03-19 07:48:28 51°13.949 2°52.891 6.5 356 5.5 103140 86
2003-03-19 07:48:32 51°13.941 2°52.868 6.4 353 5.5 103140 86
2003-03-19 07:48:38 51°13.93 2°52.833 6.6 354 5.5 103150 86
2003-03-19 07:48:42 51°13.922 2°52.808 6.6 351 5.5 103150 86
2003-03-19 07:48:48 51°13.912 2°52.772 6.6 354 5.5 103150 86
2003-03-19 07:48:54 51°13.901 2°52.735 6.6 356 5.5 103150 86
2003-03-19 07:48:58 51°13.893 2°52.712 6.7 354 5.5 103150 86
2003-03-19 07:49:03 51°13.884 2°52.682 6.9 352 5.5 103150 86
2003-03-19 07:49:08 51°13.874 2°52.653 6.5 356 5.5 103150 86
2003-03-19 07:49:13 51°13.862 2°52.625 6.5 353 5.5 103150 86
2003-03-19 07:49:18 51°13.851 2°52.596 6.9 356 5.5 103150 86
2003-03-19 07:49:23 51°13.839 2°52.569 6.6 355 5.5 103150 86
2003-03-19 07:49:28 51°13.828 2°52.54 6.6 354 5.5 103150 86
2003-03-19 07:49:34 51°13.815 2°52.506 6.8 357 5.5 103150 86
2003-03-19 07:49:38 51°13.806 2°52.483 6.3 355 5.5 103150 86
2003-03-19 07:49:44 51°13.794 2°52.448 6.7 353 5.5 103150 86
2003-03-19 07:49:48 51°13.786 2°52.424 6.7 353 5.5 103140 87
2003-03-19 07:49:54 51°13.775 2°52.387 6.6 355 5.5 103140 87
2003-03-19 07:49:58 51°13.768 2°52.363 6.7 352 5.5 103150 87
2003-03-19 07:50:04 51°13.757 2°52.326 6.6 354 5.5 103150 87
2003-03-19 07:50:08 51°13.749 2°52.303 6.5 352 5.5 103150 87
2003-03-19 07:50:14 51°13.737 2°52.268 6.7 353 5.5 103150 87
2003-03-19 07:50:18 51°13.729 2°52.245 6.5 355 5.5 103150 87
2003-03-19 07:50:23 51°13.718 2°52.217 6.5 355 5.5 103150 87
2003-03-19 07:50:29 51°13.706 2°52.182 6.5 352 5.5 103140 87
2003-03-19 07:50:34 51°13.696 2°52.153 6.4 354 5.5 103140 87
2003-03-19 07:50:38 51°13.687 2°52.13 6.7 350 5.5 103150 87
2003-03-19 07:50:44 51°13.675 2°52.095 6.7 349 5.5 103150 87
2003-03-19 07:50:48 51°13.666 2°52.072 6.3 351 5.5 103150 87
2003-03-19 07:50:54 51°13.654 2°52.037 6.6 353 5.5 103150 87
2003-03-19 07:50:59 51°13.643 2°52.008 6.5 349 5.5 103150 87
2003-03-19 07:51:04 51°13.632 2°51.98 6.3 351 5.5 103150 87
2003-03-19 07:51:08 51°13.623 2°51.957 6.4 350 5.5 103150 87
2003-03-19 07:51:13 51°13.612 2°51.928 6.4 351 5.5 103150 87
2003-03-19 07:51:18 51°13.601 2°51.9 6.3 350 5.5 103140 87
2003-03-19 07:51:23 51°13.59 2°51.871 6.3 353 5.5 103140 87
2003-03-19 07:51:29 51°13.577 2°51.837 6.4 349 5.6 103150 87
2003-03-19 07:51:34 51°13.567 2°51.808 6.7 352 5.6 103150 87
2003-03-19 07:51:38 51°13.559 2°51.785 6.7 353 5.5 103150 87
2003-03-19 07:51:44 51°13.546 2°51.75 6.4 353 5.5 103150 87
2003-03-19 07:51:48 51°13.538 2°51.726 6.5 353 5.6 103150 87
2003-03-19 07:51:54 51°13.526 2°51.692 6.3 350 5.6 103150 87
2003-03-19 07:51:59 51°13.515 2°51.663 6.2 353 5.6 103150 87
2003-03-19 07:52:04 51°13.505 2°51.635 6 350 5.6 103150 87
2003-03-19 07:52:08 51°13.497 2°51.612 6.3 352 5.6 103150 87
2003-03-19 07:52:14 51°13.485 2°51.577 6.1 352 5.6 103150 87
2003-03-19 07:52:18 51°13.477 2°51.553 6 353 5.6 103150 87
2003-03-19 07:52:23 51°13.466 2°51.524 6.1 351 5.6 103150 87
2003-03-19 07:52:29 51°13.454 2°51.489 6.1 351 5.6 103150 87
2003-03-19 07:52:34 51°13.444 2°51.46 6.2 353 5.6 103150 87
2003-03-19 07:52:38 51°13.436 2°51.437 6.3 352 5.6 103150 87
2003-03-19 07:52:44 51°13.424 2°51.402 6.1 350 5.6 103150 87
2003-03-19 07:52:48 51°13.416 2°51.378 6.5 354 5.6 103150 87
2003-03-19 07:52:54 51°13.403 2°51.343 6.2 350 5.6 103150 87
2003-03-19 07:52:58 51°13.395 2°51.32 6.2 352 5.6 103150 87
2003-03-19 07:53:04 51°13.383 2°51.285 6.2 351 5.6 103150 87
2003-03-19 07:53:08 51°13.374 2°51.263 6.1 351 5.6 103140 87
2003-03-19 07:53:13 51°13.364 2°51.235 6.3 351 5.6 103140 87
2003-03-19 07:53:18 51°13.353 2°51.206 6.2 351 5.6 103140 87
2003-03-19 07:53:23 51°13.343 2°51.177 6.1 352 5.6 103140 87
2003-03-19 07:53:29 51°13.33 2°51.142 6.2 351 5.6 103140 87
2003-03-19 07:53:34 51°13.321 2°51.113 5.9 351 5.6 103140 87
2003-03-19 07:53:38 51°13.312 2°51.089 5.7 350 5.6 103140 87
2003-03-19 07:53:44 51°13.3 2°51.054 5.7 351 5.6 103140 87
2003-03-19 07:53:48 51°13.292 2°51.031 5.7 350 5.6 103140 87
2003-03-19 07:53:54 51°13.28 2°50.996 5.8 349 5.6 103140 87
2003-03-19 07:53:59 51°13.27 2°50.967 5.9 352 5.6 103140 87
2003-03-19 07:54:04 51°13.26 2°50.938 5.9 352 5.6 103140 87
2003-03-19 07:54:08 51°13.252 2°50.915 5.9 351 5.6 103140 87
2003-03-19 07:54:13 51°13.242 2°50.885 6 353 5.6 103140 87
2003-03-19 07:54:18 51°13.231 2°50.856 6.2 351 5.6 103140 87
2003-03-19 07:54:23 51°13.221 2°50.827 5.8 351 5.6 103140 87
2003-03-19 07:54:29 51°13.208 2°50.793 5.7 351 5.6 103140 87
2003-03-19 07:54:34 51°13.198 2°50.763 6 350 5.6 103140 87
2003-03-19 07:54:38 51°13.19 2°50.74 5.9 352 5.6 103140 87
2003-03-19 07:54:44 51°13.178 2°50.705 5.8 350 5.6 103140 87
2003-03-19 07:54:48 51°13.17 2°50.682 5.9 349 5.7 103140 87
2003-03-19 07:54:54 51°13.157 2°50.646 6.1 351 5.7 103140 87
2003-03-19 07:54:58 51°13.149 2°50.623 5.7 350 5.7 103140 87
2003-03-19 07:55:04 51°13.137 2°50.588 6.2 351 5.7 103140 87
2003-03-19 07:55:08 51°13.128 2°50.565 5.9 349 5.7 103140 87
2003-03-19 07:55:14 51°13.116 2°50.53 5.8 350 5.7 103140 87
2003-03-19 07:55:18 51°13.108 2°50.507 6.1 351 5.7 103140 87
2003-03-19 07:55:24 51°13.096 2°50.471 5.8 351 5.7 103140 87
2003-03-19 07:55:28 51°13.087 2°50.448 5.9 350 5.7 103140 87
2003-03-19 07:55:34 51°13.075 2°50.413 5.7 349 5.7 103140 87
2003-03-19 07:55:38 51°13.066 2°50.389 5.8 350 5.7 103140 87
2003-03-19 07:55:42 51°13.058 2°50.366 5.8 351 5.7 103140 87
2003-03-19 07:55:48 51°13.045 2°50.331 5.8 350 5.7 103140 87
2003-03-19 07:55:54 51°13.033 2°50.296 5.9 353 5.7 103140 87
2003-03-19 07:55:59 51°13.023 2°50.267 5.9 352 5.7 103140 87
2003-03-19 07:56:04 51°13.013 2°50.238 5.7 351 5.7 103140 87
2003-03-19 07:56:08 51°13.005 2°50.214 5.7 354 5.7 103140 87
2003-03-19 07:56:14 51°12.992 2°50.179 5.6 350 5.7 103140 87
2003-03-19 07:56:18 51°12.984 2°50.155 5.6 352 5.7 103140 87
2003-03-19 07:56:22 51°12.975 2°50.132 6 352 5.7 103140 87
2003-03-19 07:56:28 51°12.963 2°50.098 5.6 351 5.7 103140 87
2003-03-19 07:56:34 51°12.95 2°50.063 5.9 353 5.7 103140 87
2003-03-19 07:56:38 51°12.941 2°50.039 6.1 350 5.7 103140 87
2003-03-19 07:56:42 51°12.933 2°50.015 6.2 350 5.7 103140 87
2003-03-19 07:56:48 51°12.92 2°49.98 6.1 349 5.7 103130 87
2003-03-19 07:56:54 51°12.908 2°49.944 6 349 5.7 103130 87
2003-03-19 07:56:58 51°12.899 2°49.92 6 348 5.7 103140 87
2003-03-19 07:57:04 51°12.887 2°49.884 6.1 350 5.7 103140 87
2003-03-19 07:57:08 51°12.879 2°49.86 6.1 349 5.7 103140 87
2003-03-19 07:57:14 51°12.866 2°49.825 5.8 351 5.7 103140 87
2003-03-19 07:57:18 51°12.858 2°49.801 5.9 351 5.7 103140 87
2003-03-19 07:57:24 51°12.845 2°49.765 6 349 5.7 103140 87
2003-03-19 07:57:28 51°12.837 2°49.742 5.9 349 5.7 103140 88
2003-03-19 07:57:34 51°12.825 2°49.706 5.8 351 5.7 103140 88
2003-03-19 07:57:38 51°12.816 2°49.682 5.7 349 5.7 103140 87
2003-03-19 07:57:44 51°12.804 2°49.647 6 353 5.7 103140 87
2003-03-19 07:57:48 51°12.796 2°49.623 5.5 353 5.7 103140 87
2003-03-19 07:57:54 51°12.783 2°49.587 5.6 351 5.7 103140 87
2003-03-19 07:57:58 51°12.775 2°49.563 5.7 352 5.8 103140 87
2003-03-19 07:58:02 51°12.767 2°49.539 5.5 351 5.8 103140 87
2003-03-19 07:58:08 51°12.755 2°49.503 6.1 352 5.8 103140 87
2003-03-19 07:58:13 51°12.744 2°49.473 6 350 5.8 103140 87
2003-03-19 07:58:18 51°12.733 2°49.443 6.1 351 5.7 103140 87
2003-03-19 07:58:24 51°12.721 2°49.407 6.3 351 5.7 103140 87
2003-03-19 07:58:29 51°12.711 2°49.377 5.9 351 5.8 103140 87
2003-03-19 07:58:34 51°12.7 2°49.347 5.9 352 5.8 103140 87
2003-03-19 07:58:38 51°12.691 2°49.323 5.8 350 5.8 103140 87
2003-03-19 07:58:44 51°12.679 2°49.288 6 351 5.8 103140 87
2003-03-19 07:58:48 51°12.67 2°49.264 5.6 352 5.8 103140 87
2003-03-19 07:58:54 51°12.658 2°49.228 6.2 350 5.8 103140 87
2003-03-19 07:58:58 51°12.649 2°49.205 6.1 353 5.8 103140 87
2003-03-19 07:59:02 51°12.641 2°49.181 5.8 354 5.8 103140 87
2003-03-19 07:59:08 51°12.629 2°49.145 5.8 349 5.8 103140 87
2003-03-19 07:59:13 51°12.618 2°49.115 5.8 352 5.8 103140 87
2003-03-19 07:59:18 51°12.608 2°49.086 6.1 350 5.8 103140 87
2003-03-19 07:59:24 51°12.596 2°49.05 5.7 351 5.8 103140 87
2003-03-19 07:59:28 51°12.587 2°49.026 5.9 352 5.8 103140 87
2003-03-19 07:59:34 51°12.575 2°48.99 5.9 356 5.8 103140 87
2003-03-19 07:59:38 51°12.567 2°48.967 5.8 350 5.8 103140 88
2003-03-19 07:59:44 51°12.555 2°48.93 5.8 348 5.8 103140 88
2003-03-19 07:59:48 51°12.546 2°48.907 5.9 349 5.8 103140 88
2003-03-19 07:59:54 51°12.534 2°48.871 5.7 353 5.8 103140 88
2003-03-19 07:59:58 51°12.525 2°48.847 5.9 353 5.8 103140 88
2003-03-19 08:00:02 51°12.517 2°48.823 5.7 349 5.8 103140 88
2003-03-19 08:00:08 51°12.505 2°48.787 5.5 353 5.8 103140 88
2003-03-19 08:00:13 51°12.495 2°48.758 5.7 350 5.8 103140 88
2003-03-19 08:00:18 51°12.485 2°48.728 5.6 351 5.8 103140 88
2003-03-19 08:00:24 51°12.472 2°48.692 5.7 352 5.8 103140 87
2003-03-19 08:00:28 51°12.464 2°48.669 5.9 352 5.8 103130 87
2003-03-19 08:00:34 51°12.452 2°48.633 6 353 5.8 103130 87
2003-03-19 08:00:38 51°12.443 2°48.609 5.7 351 5.8 103140 87
2003-03-19 08:00:44 51°12.431 2°48.574 5.8 351 5.8 103140 87
2003-03-19 08:00:48 51°12.422 2°48.551 5.8 351 5.8 103140 87
2003-03-19 08:00:54 51°12.41 2°48.516 5.8 353 5.8 103140 87
2003-03-19 08:00:58 51°12.401 2°48.492 5.8 352 5.8 103140 87
2003-03-19 08:01:03 51°12.391 2°48.463 5.7 352 5.8 103140 87
2003-03-19 08:01:08 51°12.38 2°48.434 5.9 355 5.8 103140 87
2003-03-19 08:01:13 51°12.37 2°48.404 5.8 352 5.8 103140 87
2003-03-19 08:01:18 51°12.36 2°48.375 5.8 353 5.8 103130 87
2003-03-19 08:01:24 51°12.347 2°48.34 5.9 352 5.8 103130 87
2003-03-19 08:01:28 51°12.339 2°48.315 5.6 352 5.8 103140 88
2003-03-19 08:01:34 51°12.326 2°48.28 5.7 352 5.8 103140 88
2003-03-19 08:01:38 51°12.318 2°48.257 5.7 353 5.8 103130 88
2003-03-19 08:01:43 51°12.307 2°48.228 5.6 354 5.8 103130 88
2003-03-19 08:01:49 51°12.295 2°48.193 5.7 354 5.8 103130 88
2003-03-19 08:01:54 51°12.285 2°48.163 5.8 354 5.9 103130 88
2003-03-19 08:01:58 51°12.276 2°48.14 5.9 354 5.9 103130 88
2003-03-19 08:02:04 51°12.264 2°48.104 5.9 356 5.9 103140 88
2003-03-19 08:02:09 51°12.253 2°48.075 5.8 352 5.9 103140 87
2003-03-19 08:02:14 51°12.243 2°48.045 5.9 355 5.9 103140 87
2003-03-19 08:02:18 51°12.234 2°48.021 5.9 353 5.9 103140 87
2003-03-19 08:02:23 51°12.224 2°47.992 5.9 353 5.9 103140 87
2003-03-19 08:02:28 51°12.214 2°47.962 5.9 352 5.9 103140 87
2003-03-19 08:02:34 51°12.202 2°47.926 6 353 5.9 103140 87
2003-03-19 08:02:38 51°12.194 2°47.902 5.9 352 5.9 103140 87
2003-03-19 08:02:42 51°12.186 2°47.878 5.8 353 5.9 103140 87
2003-03-19 08:02:48 51°12.173 2°47.842 6 352 5.9 103140 87
2003-03-19 08:02:54 51°12.161 2°47.806 6 353 5.9 103140 87
2003-03-19 08:02:58 51°12.152 2°47.782 6.1 353 5.9 103130 87
2003-03-19 08:03:04 51°12.14 2°47.746 6.2 352 5.9 103130 87
2003-03-19 08:03:09 51°12.129 2°47.716 5.9 351 5.9 103130 87
2003-03-19 08:03:14 51°12.119 2°47.686 6.1 352 5.9 103140 87
2003-03-19 08:03:18 51°12.111 2°47.662 6 350 5.9 103140 87
2003-03-19 08:03:22 51°12.102 2°47.638 6.1 352 5.9 103140 87
2003-03-19 08:03:28 51°12.09 2°47.602 6.1 350 5.9 103140 87
2003-03-19 08:03:34 51°12.078 2°47.566 5.9 354 5.9 103140 87
2003-03-19 08:03:38 51°12.069 2°47.542 6.2 351 5.9 103140 87
2003-03-19 08:03:44 51°12.057 2°47.506 6.1 352 5.9 103140 87
2003-03-19 08:03:49 51°12.046 2°47.476 6 350 5.9 103140 87
2003-03-19 08:03:54 51°12.036 2°47.446 5.9 352 5.9 103140 87
2003-03-19 08:03:58 51°12.027 2°47.422 6 356 5.9 103140 87
2003-03-19 08:04:03 51°12.017 2°47.392 6.2 351 5.9 103140 87
2003-03-19 08:04:09 51°12.005 2°47.356 5.9 352 5.9 103140 87
2003-03-19 08:04:14 51°11.994 2°47.325 6 352 5.9 103140 87
2003-03-19 08:04:18 51°11.986 2°47.301 5.9 355 5.9 103140 87
2003-03-19 08:04:24 51°11.974 2°47.265 6.2 353 5.9 103140 87
2003-03-19 08:04:29 51°11.963 2°47.235 6.1 350 5.9 103140 87
2003-03-19 08:04:34 51°11.953 2°47.205 6.4 352 5.9 103140 87
2003-03-19 08:04:38 51°11.945 2°47.181 6.1 348 5.9 103140 87
2003-03-19 08:04:44 51°11.932 2°47.145 6 352 5.9 103140 87
2003-03-19 08:04:49 51°11.922 2°47.115 6.2 353 5.9 103140 87
2003-03-19 08:04:54 51°11.911 2°47.085 6.2 350 5.9 103140 87
2003-03-19 08:04:58 51°11.903 2°47.061 6 351 5.9 103140 87
2003-03-19 08:05:02 51°11.895 2°47.037 6.2 348 5.9 103140 87
2003-03-19 08:05:08 51°11.882 2°47.001 6.1 352 5.9 103140 87
2003-03-19 08:05:14 51°11.87 2°46.965 6 352 5.9 103140 87
2003-03-19 08:05:18 51°11.862 2°46.941 5.8 351 5.9 103140 87
2003-03-19 08:05:23 51°11.852 2°46.911 5.9 350 5.9 103140 87
2003-03-19 08:05:29 51°11.841 2°46.874 5.9 353 5.9 103140 87
2003-03-19 08:05:33 51°11.833 2°46.85 6.1 351 5.9 103140 87
2003-03-19 08:05:38 51°11.823 2°46.819 6 354 5.9 103140 87
2003-03-19 08:05:44 51°11.812 2°46.782 6.2 352 5.9 103140 87
2003-03-19 08:05:48 51°11.804 2°46.758 5.8 352 5.9 103140 87
2003-03-19 08:05:54 51°11.792 2°46.722 6 350 5.9 103140 87
2003-03-19 08:05:58 51°11.784 2°46.697 6.1 354 5.9 103140 87
2003-03-19 08:06:02 51°11.777 2°46.673 6.1 351 5.9 103140 87
2003-03-19 08:06:08 51°11.765 2°46.636 6 349 5.9 103140 87
2003-03-19 08:06:14 51°11.753 2°46.6 5.9 351 5.9 103140 87
2003-03-19 08:06:18 51°11.745 2°46.575 6.5 353 5.9 103140 87
2003-03-19 08:06:24 51°11.734 2°46.539 6.1 348 5.9 103140 87
2003-03-19 08:06:29 51°11.724 2°46.508 6.5 357 5.9 103140 87
2003-03-19 08:06:33 51°11.717 2°46.484 6 352 5.9 103140 87
2003-03-19 08:06:38 51°11.707 2°46.453 6.2 354 5.9 103140 87
2003-03-19 08:06:44 51°11.696 2°46.417 6.2 351 5.9 103140 87
2003-03-19 08:06:48 51°11.688 2°46.392 6.3 352 6 103140 87
2003-03-19 08:06:53 51°11.678 2°46.362 6.3 353 6 103140 87
2003-03-19 08:06:58 51°11.668 2°46.332 6.1 351 6 103140 87
2003-03-19 08:07:02 51°11.661 2°46.307 6.4 351 6 103140 87
2003-03-19 08:07:09 51°11.647 2°46.264 6.1 352 6 103140 87
2003-03-19 08:07:13 51°11.639 2°46.24 6.1 352 6 103140 87
2003-03-19 08:07:18 51°11.629 2°46.209 5.9 352 6 103140 87
2003-03-19 08:07:24 51°11.618 2°46.173 6.3 352 6 103140 87
2003-03-19 08:07:29 51°11.608 2°46.143 5.9 350 6 103140 87
2003-03-19 08:07:34 51°11.598 2°46.112 6.2 354 6 103140 87
2003-03-19 08:07:38 51°11.59 2°46.088 6.2 353 6 103140 87
2003-03-19 08:07:42 51°11.583 2°46.063 6 352 6 103140 87
2003-03-19 08:07:48 51°11.571 2°46.027 6 353 6 103140 87
2003-03-19 08:07:54 51°11.56 2°45.99 6.3 353 6 103140 87
2003-03-19 08:07:58 51°11.552 2°45.966 5.7 352 6 103140 87
2003-03-19 08:08:04 51°11.541 2°45.93 6.1 353 6 103140 87
2003-03-19 08:08:09 51°11.531 2°45.899 6.1 356 6 103140 87
2003-03-19 08:08:14 51°11.521 2°45.869 6.2 352 6 103140 87
2003-03-19 08:08:18 51°11.514 2°45.845 6 352 6 103140 87
2003-03-19 08:08:22 51°11.506 2°45.821 6.3 354 6 103140 87
2003-03-19 08:08:29 51°11.492 2°45.778 6.2 352 6 103140 87
2003-03-19 08:08:34 51°11.483 2°45.748 6.2 354 6 103140 87
2003-03-19 08:08:38 51°11.475 2°45.724 6.4 351 6 103140 87
2003-03-19 08:08:43 51°11.466 2°45.693 6.2 352 6 103140 87
2003-03-19 08:08:49 51°11.454 2°45.657 6.3 355 6 103140 87
2003-03-19 08:08:54 51°11.444 2°45.627 6.4 352 6 103140 87
2003-03-19 08:08:58 51°11.437 2°45.602 6.5 357 6 103140 87
2003-03-19 08:09:04 51°11.425 2°45.566 6.3 354 6 103140 87
2003-03-19 08:09:09 51°11.416 2°45.536 6.4 354 6 103130 87
2003-03-19 08:09:14 51°11.406 2°45.505 6.5 354 6 103130 87
2003-03-19 08:09:18 51°11.399 2°45.48 6.1 353 6 103140 87
2003-03-19 08:09:22 51°11.391 2°45.456 6 353 6 103140 87
2003-03-19 08:09:28 51°11.38 2°45.42 6.3 353 6 103140 87
2003-03-19 08:09:33 51°11.37 2°45.39 6.2 355 6 103140 87
2003-03-19 08:09:38 51°11.361 2°45.36 6.3 355 6 103140 87
2003-03-19 08:09:44 51°11.349 2°45.323 6.4 353 6 103140 87
2003-03-19 08:09:48 51°11.342 2°45.299 6.4 354 6 103140 87
2003-03-19 08:09:53 51°11.332 2°45.269 6.4 357 6 103140 87
2003-03-19 08:09:58 51°11.322 2°45.239 6.4 354 6 103140 87
2003-03-19 08:10:02 51°11.315 2°45.215 6.2 356 6 103140 87
2003-03-19 08:10:08 51°11.304 2°45.179 6.7 355 6 103140 87
2003-03-19 08:10:13 51°11.294 2°45.148 6.4 354 6 103140 87
2003-03-19 08:10:19 51°11.283 2°45.113 6.3 355 6 103140 87
2003-03-19 08:10:24 51°11.274 2°45.082 6.5 355 6 103140 87
2003-03-19 08:10:29 51°11.264 2°45.053 6.6 354 6 103140 87
2003-03-19 08:10:34 51°11.254 2°45.022 6.3 354 6 103140 87
2003-03-19 08:10:38 51°11.247 2°44.999 6.3 355 6 103140 87
2003-03-19 08:10:44 51°11.235 2°44.962 6.5 355 6 103140 87
2003-03-19 08:10:49 51°11.226 2°44.932 6.4 354 6 103140 87
2003-03-19 08:10:54 51°11.217 2°44.902 6.3 355 6 103140 87
2003-03-19 08:10:58 51°11.209 2°44.878 6.2 354 6 103140 87
2003-03-19 08:11:04 51°11.198 2°44.843 6.2 355 6 103140 87
2003-03-19 08:11:08 51°11.19 2°44.819 6.2 355 6 103140 87
2003-03-19 08:11:14 51°11.179 2°44.783 6.3 357 6 103140 87
2003-03-19 08:11:19 51°11.169 2°44.753 6.2 352 6 103140 87
2003-03-19 08:11:24 51°11.16 2°44.723 6.1 354 6 103140 87
2003-03-19 08:11:29 51°11.151 2°44.693 6.4 354 6 103140 87
2003-03-19 08:11:34 51°11.142 2°44.663 6.3 354 6 103140 87
2003-03-19 08:11:38 51°11.134 2°44.639 6.1 354 6 103140 87
2003-03-19 08:11:44 51°11.123 2°44.604 6.2 354 6 103140 87
2003-03-19 08:11:49 51°11.113 2°44.574 6.3 355 6 103140 87
2003-03-19 08:11:54 51°11.104 2°44.544 6.2 355 6 103140 87
2003-03-19 08:11:58 51°11.096 2°44.52 6.3 354 6 103140 87
2003-03-19 08:12:04 51°11.085 2°44.484 6.4 352 6 103140 87
2003-03-19 08:12:08 51°11.078 2°44.46 6.2 353 6 103140 87
2003-03-19 08:12:14 51°11.067 2°44.425 6.1 352 6 103140 87
2003-03-19 08:12:19 51°11.058 2°44.395 6.3 355 6 103140 87
2003-03-19 08:12:24 51°11.048 2°44.365 6.2 355 6 103140 87
2003-03-19 08:12:29 51°11.039 2°44.336 6.1 353 6 103140 87
2003-03-19 08:12:34 51°11.03 2°44.306 6.2 354 6 103140 87
2003-03-19 08:12:38 51°11.022 2°44.283 6 350 6 103140 87
2003-03-19 08:12:44 51°11.01 2°44.247 6.1 351 6 103140 87
2003-03-19 08:12:49 51°11.001 2°44.218 5.8 350 6 103140 87
2003-03-19 08:12:54 51°10.992 2°44.188 6.2 355 6 103140 87
2003-03-19 08:12:58 51°10.984 2°44.165 6.2 350 6 103140 87
2003-03-19 08:13:04 51°10.973 2°44.129 6.1 350 6 103140 87
2003-03-19 08:13:09 51°10.964 2°44.099 6.1 352 6 103140 87
2003-03-19 08:13:14 51°10.955 2°44.07 6 351 6 103140 87
2003-03-19 08:13:18 51°10.947 2°44.046 6 353 6 103140 87
2003-03-19 08:13:24 51°10.936 2°44.01 6.1 351 6 103140 87
2003-03-19 08:13:29 51°10.927 2°43.981 6.1 351 6 103140 87
2003-03-19 08:13:34 51°10.919 2°43.952 6 353 6 103140 87
2003-03-19 08:13:38 51°10.911 2°43.928 6 354 6 103140 87
2003-03-19 08:13:44 51°10.9 2°43.893 6.2 355 6 103140 87
2003-03-19 08:13:49 51°10.891 2°43.863 6 352 6 103140 87
2003-03-19 08:13:54 51°10.882 2°43.834 6.1 352 6 103140 87
2003-03-19 08:13:58 51°10.875 2°43.81 6 355 6 103140 87
2003-03-19 08:14:04 51°10.864 2°43.776 5.9 352 6 103140 87
2003-03-19 08:14:08 51°10.856 2°43.752 6 351 6 103140 87
2003-03-19 08:14:14 51°10.845 2°43.718 5.9 353 6 103140 87
2003-03-19 08:14:18 51°10.837 2°43.694 5.9 355 6 103140 87
2003-03-19 08:14:24 51°10.825 2°43.66 5.8 353 6 103140 87
2003-03-19 08:14:29 51°10.816 2°43.631 5.7 351 6 103140 87
2003-03-19 08:14:34 51°10.806 2°43.602 5.9 354 6 103140 87
2003-03-19 08:14:38 51°10.798 2°43.579 5.9 348 6 103140 87
2003-03-19 08:14:44 51°10.788 2°43.543 5.7 352 6 103140 87
2003-03-19 08:14:49 51°10.779 2°43.514 5.7 347 6 103140 87
2003-03-19 08:14:54 51°10.77 2°43.485 5.6 351 6 103140 87
2003-03-19 08:14:58 51°10.763 2°43.461 5.8 350 6 103140 87
2003-03-19 08:15:04 51°10.754 2°43.426 5.7 354 6 103140 87
2003-03-19 08:15:08 51°10.747 2°43.403 5.8 350 6 103140 87
2003-03-19 08:15:14 51°10.737 2°43.368 5.6 352 6 103140 87
2003-03-19 08:15:18 51°10.73 2°43.344 5.6 350 6 103140 87
2003-03-19 08:15:24 51°10.719 2°43.31 5.7 351 6 103140 87
2003-03-19 08:15:29 51°10.71 2°43.281 5.6 356 6 103140 87
2003-03-19 08:15:34 51°10.7 2°43.252 5.5 350 6 103140 87
2003-03-19 08:15:39 51°10.691 2°43.223 5.4 356 6 103140 87
2003-03-19 08:15:44 51°10.682 2°43.194 5.9 353 6 103140 87
2003-03-19 08:15:49 51°10.674 2°43.165 5.6 356 6 103140 87
2003-03-19 08:15:54 51°10.666 2°43.136 5.6 350 6 103140 87
2003-03-19 08:15:58 51°10.66 2°43.112 5.5 348 6 103140 87
2003-03-19 08:16:04 51°10.656 2°43.074 5.7 345 6 103140 87
2003-03-19 08:16:09 51°10.656 2°43.042 5.8 349 6 103140 87
2003-03-19 08:16:14 51°10.657 2°43.011 5.8 343 6 103140 87
2003-03-19 08:16:18 51°10.658 2°42.986 6 345 6 103140 87
2003-03-19 08:16:24 51°10.661 2°42.949 5.9 346 6 103140 87
2003-03-19 08:16:29 51°10.662 2°42.918 5.9 346 6 103140 87
2003-03-19 08:16:34 51°10.663 2°42.886 6 344 6 103140 87
2003-03-19 08:16:38 51°10.663 2°42.861 6 348 6 103140 87
2003-03-19 08:16:44 51°10.663 2°42.822 6.2 345 6 103140 87
2003-03-19 08:16:49 51°10.663 2°42.789 6.3 347 6 103140 87
2003-03-19 08:16:54 51°10.662 2°42.757 6.2 344 6 103140 87
2003-03-19 08:16:58 51°10.661 2°42.731 5.9 342 6 103140 87
2003-03-19 08:17:04 51°10.659 2°42.692 5.9 348 6 103130 87
2003-03-19 08:17:09 51°10.656 2°42.66 6.3 346 6 103140 87
2003-03-19 08:17:14 51°10.653 2°42.628 6.2 348 6 103140 87
2003-03-19 08:17:18 51°10.65 2°42.602 6.2 345 6 103140 87
2003-03-19 08:17:24 51°10.644 2°42.563 5.8 347 6 103140 87
2003-03-19 08:17:29 51°10.639 2°42.532 5.8 347 6 103130 87
2003-03-19 08:17:34 51°10.631 2°42.501 5.9 351 6 103130 87
2003-03-19 08:17:38 51°10.625 2°42.476 6.1 352 6 103140 87
2003-03-19 08:17:44 51°10.614 2°42.441 6.1 348 6 103140 87
2003-03-19 08:17:49 51°10.604 2°42.412 6.1 353 6 103140 87
2003-03-19 08:17:54 51°10.593 2°42.385 6 350 6 103140 87
2003-03-19 08:17:58 51°10.583 2°42.363 6 353 6 103140 87
2003-03-19 08:18:04 51°10.568 2°42.332 6 352 6 103140 87
2003-03-19 08:18:09 51°10.555 2°42.307 6 352 6 103140 87
2003-03-19 08:18:14 51°10.541 2°42.282 5.8 357 6 103140 87
2003-03-19 08:18:18 51°10.53 2°42.264 5.9 356 6 103140 87
2003-03-19 08:18:24 51°10.512 2°42.236 5.6 357 6.1 103140 87
2003-03-19 08:18:29 51°10.498 2°42.213 5.4 353 6.1 103140 87
2003-03-19 08:18:34 51°10.485 2°42.188 5.7 356 6.1 103140 87
2003-03-19 08:18:38 51°10.474 2°42.168 5.5 351 6.1 103140 87
2003-03-19 08:18:44 51°10.46 2°42.137 5.5 356 6.1 103140 87
2003-03-19 08:18:49 51°10.448 2°42.11 5.6 352 6.1 103140 87
2003-03-19 08:18:54 51°10.437 2°42.083 5.6 352 6.1 103140 87
2003-03-19 08:18:58 51°10.429 2°42.06 5.6 355 6.1 103140 87
2003-03-19 08:19:04 51°10.418 2°42.027 5.7 354 6.1 103140 87
2003-03-19 08:19:09 51°10.409 2°41.999 5.9 350 6.1 103140 87
2003-03-19 08:19:14 51°10.4 2°41.97 5.4 351 6.1 103140 87
2003-03-19 08:19:19 51°10.39 2°41.942 5.6 349 6.1 103140 87
2003-03-19 08:19:24 51°10.38 2°41.914 5.6 350 6.1 103140 87
2003-03-19 08:19:29 51°10.371 2°41.886 5.6 352 6.1 103140 87
2003-03-19 08:19:34 51°10.36 2°41.859 5.6 350 6.1 103140 87
2003-03-19 08:19:39 51°10.351 2°41.831 5.8 352 6.1 103140 87
2003-03-19 08:19:44 51°10.34 2°41.804 5.7 354 6.1 103140 87
2003-03-19 08:19:49 51°10.33 2°41.776 5.8 351 6.1 103140 87
2003-03-19 08:19:54 51°10.319 2°41.749 5.6 349 6.1 103140 87
2003-03-19 08:19:58 51°10.311 2°41.727 5.6 352 6.1 103140 87
2003-03-19 08:20:04 51°10.298 2°41.695 5.9 352 6.1 103140 87
2003-03-19 08:20:08 51°10.29 2°41.673 5.6 354 6.1 103140 87
2003-03-19 08:20:14 51°10.277 2°41.641 5.6 351 6.1 103140 87
2003-03-19 08:20:18 51°10.268 2°41.619 5.7 351 6.1 103140 87
2003-03-19 08:20:24 51°10.255 2°41.587 5.5 349 6.1 103140 87
2003-03-19 08:20:29 51°10.245 2°41.559 5.5 350 6.1 103140 87
2003-03-19 08:20:34 51°10.235 2°41.531 5.5 350 6.1 103140 87
2003-03-19 08:20:38 51°10.228 2°41.509 5.6 348 6.1 103140 87
2003-03-19 08:20:44 51°10.217 2°41.475 5.8 351 6.1 103140 87
2003-03-19 08:20:49 51°10.208 2°41.447 5.6 349 6.2 103140 87
2003-03-19 08:20:54 51°10.199 2°41.418 5.3 346 6.2 103140 87
2003-03-19 08:20:58 51°10.192 2°41.396 5.3 350 6.2 103140 87
2003-03-19 08:21:04 51°10.18 2°41.362 5.4 346 6.2 103140 87
2003-03-19 08:21:09 51°10.172 2°41.333 5.3 348 6.2 103140 87
2003-03-19 08:21:14 51°10.162 2°41.305 5.2 346 6.2 103140 87
2003-03-19 08:21:19 51°10.152 2°41.278 5.1 349 6.2 103140 87
2003-03-19 08:21:24 51°10.143 2°41.25 5 348 6.2 103140 87
2003-03-19 08:21:29 51°10.133 2°41.223 5.1 347 6.1 103140 87
2003-03-19 08:21:34 51°10.123 2°41.194 5 350 6.1 103140 87
2003-03-19 08:21:38 51°10.115 2°41.172 5 347 6.2 103140 87
2003-03-19 08:21:44 51°10.103 2°41.139 4.9 345 6.2 103140 87
2003-03-19 08:21:48 51°10.094 2°41.118 4.9 346 6.1 103140 87
2003-03-19 08:21:54 51°10.082 2°41.086 4.9 351 6.1 103140 87
2003-03-19 08:21:58 51°10.073 2°41.065 5.2 345 6.2 103140 87
2003-03-19 08:22:04 51°10.06 2°41.033 5 350 6.2 103140 87
2003-03-19 08:22:09 51°10.049 2°41.007 5.1 346 6.2 103140 87
2003-03-19 08:22:14 51°10.039 2°40.98 5 347 6.2 103140 87
2003-03-19 08:22:18 51°10.031 2°40.958 5.1 350 6.1 103140 87
2003-03-19 08:22:24 51°10.018 2°40.926 5 345 6.1 103140 87
2003-03-19 08:22:29 51°10.009 2°40.898 5 354 6.2 103140 87
2003-03-19 08:22:34 51°9.998 2°40.871 5.1 346 6.2 103140 87
2003-03-19 08:22:38 51°9.991 2°40.848 5 348 6.2 103140 87
2003-03-19 08:22:44 51°9.979 2°40.815 5.1 346 6.2 103140 87
2003-03-19 08:22:49 51°9.97 2°40.787 5 346 6.2 103140 87
2003-03-19 08:22:54 51°9.961 2°40.759 5.2 345 6.2 103140 87
2003-03-19 08:22:58 51°9.954 2°40.737 5.4 342 6.2 103140 87
2003-03-19 08:23:04 51°9.944 2°40.703 5.2 348 6.2 103140 87
2003-03-19 08:23:08 51°9.937 2°40.68 5.4 342 6.2 103140 87
2003-03-19 08:23:14 51°9.927 2°40.645 5.1 344 6.2 103140 87
2003-03-19 08:23:18 51°9.921 2°40.622 5.1 343 6.2 103140 87
2003-03-19 08:23:24 51°9.911 2°40.587 5.1 343 6.2 103140 87
2003-03-19 08:23:28 51°9.904 2°40.564 5 346 6.2 103140 87
2003-03-19 08:23:34 51°9.895 2°40.529 5.3 345 6.2 103140 87
2003-03-19 08:23:38 51°9.888 2°40.506 5.1 350 6.2 103140 87
2003-03-19 08:23:44 51°9.878 2°40.472 5.1 344 6.2 103140 87
2003-03-19 08:23:48 51°9.872 2°40.449 5.1 345 6.2 103140 87
2003-03-19 08:23:54 51°9.861 2°40.414 4.9 349 6.2 103140 87
2003-03-19 08:23:58 51°9.854 2°40.392 4.9 346 6.2 103140 87
2003-03-19 08:24:04 51°9.843 2°40.359 4.9 349 6.2 103140 87
2003-03-19 08:24:09 51°9.833 2°40.331 5.1 346 6.2 103140 87
2003-03-19 08:24:14 51°9.823 2°40.304 5.2 348 6.2 103140 87
2003-03-19 08:24:18 51°9.815 2°40.282 5.1 349 6.2 103140 87
2003-03-19 08:24:24 51°9.803 2°40.249 5.1 346 6.2 103140 87
2003-03-19 08:24:28 51°9.795 2°40.227 5.2 348 6.2 103140 87
2003-03-19 08:24:34 51°9.783 2°40.194 5.1 348 6.2 103140 87
2003-03-19 08:24:38 51°9.775 2°40.173 5.2 347 6.2 103140 87
2003-03-19 08:24:44 51°9.763 2°40.139 5.1 347 6.2 103140 87
2003-03-19 08:24:49 51°9.754 2°40.111 5.2 346 6.2 103140 87
2003-03-19 08:24:54 51°9.744 2°40.084 5.1 347 6.2 103140 87
2003-03-19 08:24:58 51°9.737 2°40.061 5.1 347 6.2 103130 87
2003-03-19 08:25:04 51°9.726 2°40.028 5.1 349 6.2 103130 87
2003-03-19 08:25:08 51°9.719 2°40.005 5.1 347 6.2 103140 87
2003-03-19 08:25:14 51°9.708 2°39.971 5.3 347 6.2 103140 87
2003-03-19 08:25:19 51°9.699 2°39.943 5.3 348 6.2 103140 87
2003-03-19 08:25:24 51°9.691 2°39.914 5.2 350 6.2 103140 87
2003-03-19 08:25:30 51°9.681 2°39.88 5.3 346 6.2 103140 87
2003-03-19 08:25:34 51°9.674 2°39.857 5 346 6.2 103140 87
2003-03-19 08:25:38 51°9.667 2°39.834 5.2 343 6.2 103140 87
2003-03-19 08:25:44 51°9.658 2°39.799 5.3 346 6.2 103140 87
2003-03-19 08:25:49 51°9.649 2°39.771 5.1 346 6.2 103140 87
2003-03-19 08:25:54 51°9.641 2°39.742 5.2 345 6.2 103140 87
2003-03-19 08:25:58 51°9.634 2°39.719 5.1 345 6.2 103140 87
2003-03-19 08:26:04 51°9.624 2°39.685 5.2 345 6.2 103140 87
2003-03-19 08:26:08 51°9.617 2°39.662 5.3 347 6.2 103140 87
2003-03-19 08:26:14 51°9.606 2°39.628 5.2 349 6.2 103140 87
2003-03-19 08:26:18 51°9.599 2°39.606 5.3 348 6.3 103140 87
2003-03-19 08:26:24 51°9.588 2°39.571 5.1 347 6.3 103140 87
2003-03-19 08:26:29 51°9.579 2°39.543 5.3 346 6.2 103140 87
2003-03-19 08:26:34 51°9.57 2°39.515 5.4 346 6.2 103140 87
2003-03-19 08:26:38 51°9.563 2°39.492 5.4 347 6.2 103140 87
2003-03-19 08:26:44 51°9.552 2°39.458 5.4 346 6.2 103140 87
2003-03-19 08:26:49 51°9.544 2°39.429 5.2 347 6.2 103140 87
2003-03-19 08:26:54 51°9.536 2°39.401 5.6 345 6.2 103140 87
2003-03-19 08:26:58 51°9.529 2°39.378 5.4 346 6.3 103140 87
2003-03-19 08:27:04 51°9.519 2°39.343 5.2 342 6.3 103140 87
2003-03-19 08:27:08 51°9.513 2°39.32 5.3 346 6.3 103140 87
2003-03-19 08:27:14 51°9.503 2°39.286 5.3 347 6.3 103140 87
2003-03-19 08:27:18 51°9.496 2°39.263 5.2 344 6.3 103140 87
2003-03-19 08:27:24 51°9.486 2°39.229 5.3 347 6.3 103140 87
2003-03-19 08:27:29 51°9.477 2°39.2 5.5 347 6.3 103140 87
2003-03-19 08:27:34 51°9.468 2°39.172 5.4 344 6.3 103140 87
2003-03-19 08:27:38 51°9.46 2°39.15 5.2 350 6.3 103140 87
2003-03-19 08:27:44 51°9.448 2°39.117 5.3 350 6.3 103140 87
2003-03-19 08:27:49 51°9.439 2°39.088 5.3 348 6.3 103140 87
2003-03-19 08:27:54 51°9.429 2°39.061 5.3 344 6.3 103140 87
2003-03-19 08:27:58 51°9.423 2°39.039 5.1 347 6.3 103140 87
2003-03-19 08:28:04 51°9.412 2°39.005 5.3 348 6.3 103140 87
2003-03-19 08:28:08 51°9.405 2°38.982 5.2 345 6.3 103140 87
2003-03-19 08:28:14 51°9.395 2°38.948 5.4 346 6.3 103140 87
2003-03-19 08:28:19 51°9.386 2°38.919 5.3 348 6.3 103140 87
2003-03-19 08:28:24 51°9.378 2°38.891 5.5 345 6.3 103140 87
2003-03-19 08:28:28 51°9.371 2°38.868 5.5 347 6.3 103140 87
2003-03-19 08:28:34 51°9.361 2°38.834 5.6 347 6.3 103140 87
2003-03-19 08:28:38 51°9.355 2°38.811 5.5 348 6.3 103140 87
2003-03-19 08:28:44 51°9.344 2°38.777 5.6 343 6.3 103140 87
2003-03-19 08:28:48 51°9.337 2°38.754 5.6 345 6.3 103140 87
2003-03-19 08:28:54 51°9.327 2°38.72 5.6 347 6.3 103140 87
2003-03-19 08:28:58 51°9.319 2°38.698 5.5 346 6.3 103140 87
2003-03-19 08:29:04 51°9.309 2°38.664 5.3 345 6.3 103140 87
2003-03-19 08:29:09 51°9.3 2°38.636 5.4 346 6.3 103140 87
2003-03-19 08:29:14 51°9.291 2°38.607 5.5 349 6.3 103140 87
2003-03-19 08:29:18 51°9.284 2°38.585 5.4 348 6.3 103140 87
2003-03-19 08:29:24 51°9.274 2°38.551 5.2 348 6.3 103140 87
2003-03-19 08:29:28 51°9.266 2°38.528 5.4 345 6.3 103140 87
2003-03-19 08:29:34 51°9.256 2°38.494 5.5 346 6.3 103140 87
2003-03-19 08:29:38 51°9.249 2°38.472 5.4 344 6.3 103140 87
2003-03-19 08:29:44 51°9.238 2°38.438 5.4 349 6.3 103140 87
2003-03-19 08:29:48 51°9.231 2°38.415 5.4 345 6.3 103140 87
2003-03-19 08:29:54 51°9.22 2°38.382 5.3 347 6.3 103140 87
2003-03-19 08:29:59 51°9.211 2°38.353 5.4 346 6.3 103140 87
2003-03-19 08:30:04 51°9.202 2°38.326 5.5 348 6.3 103140 87
2003-03-19 08:30:09 51°9.193 2°38.298 5.4 348 6.3 103140 87
2003-03-19 08:30:14 51°9.185 2°38.269 5.2 344 6.3 103140 87
2003-03-19 08:30:18 51°9.178 2°38.246 5.3 346 6.3 103140 87
2003-03-19 08:30:24 51°9.167 2°38.212 5.3 349 6.3 103140 87
2003-03-19 08:30:29 51°9.158 2°38.184 5.2 345 6.3 103140 87
2003-03-19 08:30:34 51°9.149 2°38.156 5.4 346 6.3 103140 87
2003-03-19 08:30:38 51°9.142 2°38.134 5.3 351 6.3 103140 87
2003-03-19 08:30:44 51°9.13 2°38.101 5.3 350 6.3 103140 87
2003-03-19 08:30:49 51°9.121 2°38.074 4.8 348 6.3 103140 87
2003-03-19 08:30:54 51°9.112 2°38.048 4.9 344 6.3 103140 87
2003-03-19 08:30:58 51°9.105 2°38.026 4.9 347 6.3 103140 87
2003-03-19 08:31:04 51°9.094 2°37.994 4.8 348 6.3 103140 87
2003-03-19 08:31:09 51°9.084 2°37.968 4.9 346 6.3 103140 87
2003-03-19 08:31:14 51°9.075 2°37.941 4.6 350 6.3 103140 87
2003-03-19 08:31:18 51°9.067 2°37.921 4.6 347 6.3 103140 87
2003-03-19 08:31:24 51°9.056 2°37.89 4.5 349 6.3 103140 87
2003-03-19 08:31:28 51°9.048 2°37.87 4.6 348 6.3 103140 87
2003-03-19 08:31:34 51°9.037 2°37.84 4.5 345 6.3 103140 87
2003-03-19 08:31:38 51°9.03 2°37.82 4.6 346 6.3 103140 87
2003-03-19 08:31:44 51°9.02 2°37.789 4.5 347 6.3 103140 87
2003-03-19 08:31:49 51°9.013 2°37.763 4.6 345 6.3 103140 87
2003-03-19 08:31:54 51°9.007 2°37.736 4.5 343 6.3 103140 87
2003-03-19 08:31:58 51°9.003 2°37.715 4.8 342 6.3 103140 87
2003-03-19 08:32:04 51°8.997 2°37.682 4.6 341 6.3 103140 87
2003-03-19 08:32:09 51°8.993 2°37.656 4.6 340 6.3 103140 87
2003-03-19 08:32:14 51°8.989 2°37.629 4.8 341 6.3 103140 87
2003-03-19 08:32:18 51°8.986 2°37.607 4.6 338 6.3 103140 87
2003-03-19 08:32:24 51°8.981 2°37.575 4.5 339 6.3 103140 87
2003-03-19 08:32:29 51°8.977 2°37.548 4.3 341 6.3 103140 87
2003-03-19 08:32:34 51°8.973 2°37.522 4.8 340 6.3 103140 87
2003-03-19 08:32:38 51°8.97 2°37.501 4.5 339 6.3 103140 87
2003-03-19 08:32:44 51°8.965 2°37.47 4.5 338 6.3 103140 87
2003-03-19 08:32:49 51°8.961 2°37.443 4.6 340 6.3 103140 87
2003-03-19 08:32:54 51°8.958 2°37.416 4.7 338 6.3 103140 87
2003-03-19 08:32:58 51°8.956 2°37.395 5 334 6.3 103140 87
2003-03-19 08:33:04 51°8.956 2°37.363 5 334 6.3 103140 87
2003-03-19 08:33:09 51°8.957 2°37.337 5.1 336 6.4 103140 87
2003-03-19 08:33:13 51°8.96 2°37.317 5.3 333 6.4 103140 87
2003-03-19 08:33:18 51°8.964 2°37.293 5.3 334 6.3 103140 87
2003-03-19 08:33:24 51°8.972 2°37.266 5.6 334 6.3 103140 87
2003-03-19 08:33:29 51°8.98 2°37.246 6.1 334 6.3 103140 87
2003-03-19 08:33:33 51°8.988 2°37.231 6.2 336 6.3 103140 87
2003-03-19 08:33:38 51°8.998 2°37.215 6.5 337 6.3 103140 86
2003-03-19 08:33:42 51°9.008 2°37.206 6.4 337 6.3 103140 86
2003-03-19 08:33:48 51°9.022 2°37.194 6.6 340 6.3 103140 86
2003-03-19 08:33:54 51°9.038 2°37.189 6.4 345 6.3 103140 86
2003-03-19 08:33:58 51°9.048 2°37.188 6.2 346 6.3 103140 86
2003-03-19 08:34:04 51°9.062 2°37.19 6 348 6.3 103130 86
2003-03-19 08:34:08 51°9.071 2°37.192 6 349 6.3 103130 87
2003-03-19 08:34:14 51°9.083 2°37.198 6 349 6.3 103130 87
2003-03-19 08:34:18 51°9.09 2°37.203 5.9 352 6.3 103130 87
2003-03-19 08:34:24 51°9.1 2°37.21 5.9 353 6.4 103130 87
2003-03-19 08:34:28 51°9.107 2°37.215 5.5 353 6.4 103130 87
2003-03-19 08:34:34 51°9.115 2°37.223 4.9 356 6.4 103130 87
2003-03-19 08:34:38 51°9.12 2°37.228 4.7 359 6.4 103130 87
2003-03-19 08:34:44 51°9.126 2°37.234 4.5 1 6.4 103130 87
2003-03-19 08:34:48 51°9.128 2°37.239 4 6 6.4 103140 87
2003-03-19 08:34:53 51°9.131 2°37.244 3.7 9 6.4 103140 87
2003-03-19 08:34:58 51°9.132 2°37.249 3.4 13 6.4 103130 87
2003-03-19 08:35:04 51°9.134 2°37.254 3 14 6.4 103130 87
2003-03-19 08:35:09 51°9.134 2°37.256 2.7 24 6.4 103130 87
2003-03-19 08:35:14 51°9.135 2°37.257 2.3 23 6.4 103140 87
2003-03-19 08:35:18 51°9.135 2°37.257 2.3 27 6.4 103140 87
2003-03-19 08:35:24 51°9.135 2°37.258 2.4 30 6.4 103140 87
2003-03-19 08:35:29 51°9.135 2°37.258 2.3 32 6.4 103140 87
2003-03-19 08:35:34 51°9.134 2°37.258 2.4 37 6.4 103140 87
2003-03-19 08:35:38 51°9.133 2°37.258 2.4 37 6.4 103140 87
2003-03-19 08:35:44 51°9.133 2°37.259 2.4 38 6.4 103140 87
2003-03-19 08:35:49 51°9.132 2°37.259 2.3 40 6.4 103140 87
2003-03-19 08:35:54 51°9.131 2°37.259 2.2 41 6.4 103140 87
2003-03-19 08:35:58 51°9.13 2°37.258 2.4 41 6.5 103140 87
2003-03-19 08:36:04 51°9.127 2°37.257 2.4 41 6.5 103140 87
2003-03-19 08:36:09 51°9.124 2°37.256 2.4 42 6.5 103140 87
2003-03-19 08:36:14 51°9.123 2°37.256 2.4 42 6.5 103140 87
2003-03-19 08:36:18 51°9.122 2°37.256 2.5 41 6.5 103140 87
2003-03-19 08:36:24 51°9.121 2°37.256 2.4 41 6.5 103140 87
2003-03-19 08:36:28 51°9.121 2°37.256 2.4 41 6.5 103140 87
2003-03-19 08:36:34 51°9.12 2°37.257 2.6 37 6.5 103140 87
2003-03-19 08:36:38 51°9.12 2°37.257 2.5 37 6.5 103140 87
2003-03-19 08:36:44 51°9.119 2°37.258 2.5 37 6.5 103140 87
2003-03-19 08:36:49 51°9.118 2°37.258 2.4 36 6.5 103140 87
2003-03-19 08:36:53 51°9.117 2°37.258 2.5 34 6.5 103140 87
2003-03-19 08:36:58 51°9.116 2°37.259 2.5 34 6.6 103140 87
2003-03-19 08:37:04 51°9.115 2°37.259 2.6 28 6.6 103140 87
2003-03-19 08:37:08 51°9.115 2°37.259 2.5 28 6.6 103140 87
2003-03-19 08:37:14 51°9.114 2°37.259 2.6 25 6.6 103140 87
2003-03-19 08:37:18 51°9.114 2°37.26 2.6 24 6.6 103140 87
2003-03-19 08:37:24 51°9.114 2°37.26 2.6 24 6.6 103140 87
2003-03-19 08:37:28 51°9.114 2°37.26 2.6 24 6.6 103140 87
2003-03-19 08:37:34 51°9.115 2°37.261 2.6 22 6.6 103140 87
2003-03-19 08:37:38 51°9.115 2°37.262 2.5 21 6.6 103140 87
2003-03-19 08:37:44 51°9.114 2°37.263 2.7 21 6.6 103140 87
2003-03-19 08:37:48 51°9.114 2°37.263 2.4 17 6.7 103140 87
2003-03-19 08:37:54 51°9.113 2°37.263 2.6 16 6.7 103140 87
2003-03-19 08:37:59 51°9.113 2°37.263 2.5 14 6.7 103140 87
2003-03-19 08:38:04 51°9.113 2°37.262 2.5 13 6.7 103140 87
2003-03-19 08:38:09 51°9.113 2°37.262 2.5 13 6.7 103140 87
2003-03-19 08:38:14 51°9.113 2°37.261 2.5 12 6.7 103140 87
2003-03-19 08:38:18 51°9.114 2°37.261 2.4 11 6.7 103140 87
2003-03-19 08:38:22 51°9.114 2°37.261 2.4 6 6.7 103140 87
2003-03-19 08:38:28 51°9.114 2°37.261 2.4 6 6.7 103140 87
2003-03-19 08:38:34 51°9.114 2°37.26 2.5 5 6.7 103140 87
2003-03-19 08:38:38 51°9.114 2°37.26 2.3 4 6.7 103140 87
2003-03-19 08:38:44 51°9.114 2°37.26 2.4 3 6.7 103140 87
2003-03-19 08:38:49 51°9.114 2°37.26 2.6 6 6.7 103140 87
2003-03-19 08:38:54 51°9.114 2°37.259 2.6 3 6.7 103140 87
2003-03-19 08:38:58 51°9.114 2°37.26 2.5 4 6.7 103140 86
2003-03-19 08:39:04 51°9.115 2°37.259 2.7 3 6.7 103140 86
2003-03-19 08:39:09 51°9.115 2°37.259 2.8 3 6.7 103140 86
2003-03-19 08:39:14 51°9.115 2°37.259 2.8 1 6.7 103140 86
2003-03-19 08:39:18 51°9.115 2°37.259 2.9 359 6.7 103140 86
2003-03-19 08:39:24 51°9.116 2°37.258 2.7 353 6.7 103140 86
2003-03-19 08:39:29 51°9.116 2°37.257 2.8 353 6.7 103140 86
2003-03-19 08:39:34 51°9.116 2°37.257 2.8 355 6.7 103140 86
2003-03-19 08:39:38 51°9.116 2°37.257 2.7 355 6.7 103130 86
2003-03-19 08:39:44 51°9.117 2°37.257 2.6 355 6.7 103130 86
2003-03-19 08:39:49 51°9.117 2°37.257 2.6 357 6.7 103140 86
2003-03-19 08:39:54 51°9.118 2°37.256 2.4 360 6.7 103140 86
2003-03-19 08:39:58 51°9.118 2°37.256 2.5 356 6.7 103140 86
2003-03-19 08:40:04 51°9.119 2°37.255 2.7 358 6.7 103140 86
2003-03-19 08:40:09 51°9.119 2°37.254 2.6 355 6.8 103140 86
2003-03-19 08:40:14 51°9.12 2°37.253 2.8 354 6.8 103140 86
2003-03-19 08:40:18 51°9.121 2°37.253 2.8 354 6.8 103140 86
2003-03-19 08:40:24 51°9.121 2°37.252 3 357 6.8 103140 86
2003-03-19 08:40:28 51°9.121 2°37.252 2.9 356 6.8 103140 86
2003-03-19 08:40:34 51°9.121 2°37.252 2.8 357 6.8 103140 86
2003-03-19 08:40:38 51°9.121 2°37.251 2.8 360 6.8 103140 86
2003-03-19 08:40:44 51°9.12 2°37.251 2.7 359 6.8 103140 86
2003-03-19 08:40:49 51°9.121 2°37.25 2.6 357 6.8 103140 86
2003-03-19 08:40:54 51°9.121 2°37.25 2.7 356 6.8 103140 86
2003-03-19 08:40:58 51°9.121 2°37.249 2.7 357 6.8 103130 86
2003-03-19 08:41:04 51°9.121 2°37.248 2.7 356 6.8 103130 86
2003-03-19 08:41:08 51°9.121 2°37.248 2.6 356 6.8 103140 86
2003-03-19 08:41:14 51°9.121 2°37.247 2.5 356 6.8 103140 86
2003-03-19 08:41:18 51°9.121 2°37.247 2.5 356 6.8 103140 86
2003-03-19 08:41:24 51°9.121 2°37.246 2.5 356 6.8 103140 86
2003-03-19 08:41:29 51°9.121 2°37.245 2.6 356 6.8 103140 86
2003-03-19 08:41:33 51°9.122 2°37.244 2.6 356 6.8 103140 86
2003-03-19 08:41:38 51°9.122 2°37.243 2.6 355 6.8 103130 86
2003-03-19 08:41:44 51°9.123 2°37.241 2.5 355 6.8 103130 86
2003-03-19 08:41:49 51°9.123 2°37.241 2.8 357 6.8 103140 86
2003-03-19 08:41:54 51°9.123 2°37.24 2.6 355 6.8 103140 86
2003-03-19 08:41:58 51°9.123 2°37.239 2.7 358 6.8 103140 86
2003-03-19 08:42:04 51°9.122 2°37.239 2.6 357 6.8 103140 86
2003-03-19 08:42:08 51°9.122 2°37.238 2.6 360 6.8 103140 86
2003-03-19 08:42:14 51°9.122 2°37.237 2.7   6.8 103140 86
2003-03-19 08:42:18 51°9.122 2°37.236 2.7   6.8 103140 86
2003-03-19 08:42:24 51°9.122 2°37.235 2.7 359 6.8 103140 86
2003-03-19 08:42:29 51°9.122 2°37.235 2.6 2 6.8 103130 86
2003-03-19 08:42:34 51°9.122 2°37.234 2.5   6.8 103130 86
2003-03-19 08:42:38 51°9.122 2°37.233 2.5 360 6.8 103140 86
2003-03-19 08:42:44 51°9.122 2°37.231 2.6 359 6.8 103140 86
2003-03-19 08:42:49 51°9.122 2°37.23 2.5 3 6.8 103140 86
2003-03-19 08:42:54 51°9.122 2°37.229 2.5 7 6.8 103140 86
2003-03-19 08:42:58 51°9.122 2°37.229 2.4 8 6.8 103130 86
2003-03-19 08:43:04 51°9.121 2°37.228 2.5 4 6.8 103130 86
2003-03-19 08:43:08 51°9.121 2°37.227 2.4 8 6.8 103130 86
2003-03-19 08:43:14 51°9.121 2°37.226 2.4 9 6.8 103140 86
2003-03-19 08:43:18 51°9.122 2°37.225 2.6 9 6.8 103140 86
2003-03-19 08:43:24 51°9.121 2°37.224 2.5 10 6.8 103140 86
2003-03-19 08:43:29 51°9.121 2°37.223 2.6 10 6.8 103130 86
2003-03-19 08:43:33 51°9.12 2°37.222 2.5 10 6.8 103130 86
2003-03-19 08:43:38 51°9.12 2°37.222 2.5 11 6.8 103130 86
2003-03-19 08:43:44 51°9.12 2°37.222 2.4 12 6.8 103140 86
2003-03-19 08:43:49 51°9.12 2°37.221 2.3 10 6.8 103130 86
2003-03-19 08:43:54 51°9.12 2°37.221 2.3 12 6.8 103130 86
2003-03-19 08:43:58 51°9.12 2°37.22 2.3 12 6.8 103140 86
2003-03-19 08:44:04 51°9.119 2°37.218 2.2 14 6.8 103140 86
2003-03-19 08:44:08 51°9.119 2°37.218 2.1 16 6.8 103130 86
2003-03-19 08:44:14 51°9.118 2°37.216 2.3 14 6.8 103130 86
2003-03-19 08:44:19 51°9.117 2°37.215 2.3 16 6.8 103140 86
2003-03-19 08:44:24 51°9.117 2°37.214 2.4 10 6.8 103140 86
2003-03-19 08:44:29 51°9.117 2°37.213 2.5 11 6.9 103130 86
2003-03-19 08:44:33 51°9.116 2°37.212 2.4 11 6.9 103130 86
2003-03-19 08:44:38 51°9.116 2°37.211 2.4 12 6.9 103140 86
2003-03-19 08:44:44 51°9.115 2°37.21 2.3 12 6.9 103140 86
2003-03-19 08:44:49 51°9.115 2°37.209 2.3 11 6.9 103140 86
2003-03-19 08:44:54 51°9.115 2°37.207 2.5 15 6.9 103140 86
2003-03-19 08:44:59 51°9.114 2°37.206 2.3 13 6.8 103130 86
2003-03-19 08:45:04 51°9.114 2°37.205 2.3 13 6.8 103130 86
2003-03-19 08:45:08 51°9.113 2°37.204 2.4 13 6.9 103140 85
2003-03-19 08:45:14 51°9.113 2°37.202 2.3 12 6.9 103140 85
2003-03-19 08:45:18 51°9.112 2°37.202 2.3 13 6.9 103130 86
2003-03-19 08:45:24 51°9.111 2°37.202 2.3 13 6.9 103130 86
2003-03-19 08:45:29 51°9.111 2°37.201 2.2 13 6.9 103140 85
2003-03-19 08:45:33 51°9.111 2°37.2 2.3 13 6.9 103140 85
2003-03-19 08:45:38 51°9.11 2°37.199 2.2 14 6.9 103130 85
2003-03-19 08:45:44 51°9.109 2°37.199 2.2 14 6.9 103130 85
2003-03-19 08:45:49 51°9.108 2°37.198 2.2 15 6.9 103130 85
2003-03-19 08:45:53 51°9.108 2°37.197 2.2 17 6.9 103130 85
2003-03-19 08:45:58 51°9.107 2°37.197 2.2 17 6.9 103130 85
2003-03-19 08:46:04 51°9.107 2°37.196 2.1 17 6.9 103130 85
2003-03-19 08:46:09 51°9.106 2°37.195 2.2 17 6.9 103140 85
2003-03-19 08:46:14 51°9.105 2°37.194 2.4 17 6.9 103140 85
2003-03-19 08:46:18 51°9.105 2°37.194 2.3 17 6.9 103130 85
2003-03-19 08:46:24 51°9.104 2°37.193 2.1 16 6.9 103130 85
2003-03-19 08:46:29 51°9.104 2°37.193 2.3 19 6.9 103140 85
2003-03-19 08:46:34 51°9.103 2°37.192 2.2 19 6.9 103140 85
2003-03-19 08:46:38 51°9.103 2°37.191 2.3 21 6.9 103130 85
2003-03-19 08:46:44 51°9.103 2°37.19 2.2 21 6.9 103130 85
2003-03-19 08:46:49 51°9.103 2°37.189 2.3 23 6.9 103130 85
2003-03-19 08:46:54 51°9.102 2°37.188 2.4 23 6.9 103130 85
2003-03-19 08:46:58 51°9.102 2°37.188 2.2 24 6.9 103140 85
2003-03-19 08:47:04 51°9.101 2°37.188 2.3 27 6.9 103140 85
2003-03-19 08:47:09 51°9.1 2°37.188 2.2 26 6.9 103130 85
2003-03-19 08:47:14 51°9.099 2°37.188 2.4 24 6.9 103130 85
2003-03-19 08:47:18 51°9.098 2°37.188 2.4 22 7 103130 85
2003-03-19 08:47:24 51°9.098 2°37.188 2.4 19 7 103130 85
2003-03-19 08:47:28 51°9.098 2°37.188 2.4 20 7 103140 85
2003-03-19 08:47:34 51°9.098 2°37.187 2.3 21 7 103140 85
2003-03-19 08:47:38 51°9.098 2°37.187 2.3 21 7 103130 85
2003-03-19 08:47:44 51°9.097 2°37.186 2.4 18 7 103130 85
2003-03-19 08:47:49 51°9.097 2°37.186 2.3 16 7 103130 85
2003-03-19 08:47:54 51°9.096 2°37.186 2.4 16 7 103130 85
2003-03-19 08:47:58 51°9.096 2°37.186 2.4 17 7 103130 85
2003-03-19 08:48:03 51°9.095 2°37.186 2.3 16 7 103130 85
2003-03-19 08:48:09 51°9.095 2°37.186 2.4 15 7 103130 85
2003-03-19 08:48:14 51°9.095 2°37.185 2.5 12 7 103130 85
2003-03-19 08:48:18 51°9.094 2°37.185 2.5 12 7 103130 85
2003-03-19 08:48:22 51°9.093 2°37.185 2.4 12 7 103130 85
2003-03-19 08:48:28 51°9.093 2°37.185 2.4 12 7 103130 85
2003-03-19 08:48:33 51°9.093 2°37.185 2.6 9 7 103130 85
2003-03-19 08:48:38 51°9.093 2°37.185 2.5 8 7 103140 85
2003-03-19 08:48:42 51°9.093 2°37.185 2.3 7 7 103140 85
2003-03-19 08:48:48 51°9.093 2°37.184 2.4 7 7 103130 85